Time;durP1;ratioP1;P1;durP2;ratioP2;P2;SDS_P1;SDS_P2;PMS_P1;PMS_P2;Temp;Humidity;BMP_temperature;BMP_pressure;BME280_temperature;BME280_humidity;BME280_pressure;Samples;Min_cycle;Max_cycle;Signal;HPM_P1;HPM_P2
2021/10/08 00:01:48;;;;;;;4.57;2.50;;;10.80;98.80;;;;;;5095738;28;20027;-83
2021/10/08 00:04:14;;;;;;;4.15;2.63;;;10.90;98.80;;;;;;5095838;28;20043;-81
2021/10/08 00:06:40;;;;;;;5.85;2.13;;;10.90;98.70;;;;;;5096453;28;20380;-81
2021/10/08 00:09:05;;;;;;;3.35;2.50;;;10.90;98.60;;;;;;5095848;28;20073;-81
2021/10/08 00:11:32;;;;;;;3.90;2.72;;;10.90;98.70;;;;;;5095583;28;20477;-81
2021/10/08 00:13:57;;;;;;;3.78;2.50;;;10.80;98.70;;;;;;5094520;28;20043;-81
2021/10/08 00:16:23;;;;;;;3.03;2.40;;;10.80;98.70;;;;;;5095678;28;20028;-81
2021/10/08 00:18:49;;;;;;;4.40;2.60;;;10.70;98.70;;;;;;5094707;28;20024;-83
2021/10/08 00:21:15;;;;;;;4.63;2.80;;;10.70;98.80;;;;;;5095280;28;20461;-81
2021/10/08 00:23:41;;;;;;;3.20;2.40;;;10.80;98.80;;;;;;5095328;28;20035;-81
2021/10/08 00:26:07;;;;;;;3.72;2.40;;;10.80;98.80;;;;;;5095491;28;20495;-81
2021/10/08 00:28:32;;;;;;;3.25;2.53;;;10.80;98.80;;;;;;5095370;28;20031;-80
2021/10/08 00:30:59;;;;;;;7.30;2.50;;;10.80;98.80;;;;;;5094925;28;20377;-81
2021/10/08 00:33:25;;;;;;;5.50;3.08;;;10.70;98.80;;;;;;5095350;28;20071;-81
2021/10/08 00:35:50;;;;;;;3.60;2.47;;;10.70;98.80;;;;;;5094297;28;20055;-85
2021/10/08 00:38:16;;;;;;;6.65;2.67;;;10.70;99.10;;;;;;5095237;28;20362;-81
2021/10/08 00:40:45;;;;;;;3.60;2.53;;;10.50;99.00;;;;;;5095271;28;20052;-79
2021/10/08 00:43:11;;;;;;;5.40;2.80;;;10.60;99.00;;;;;;5095419;28;20020;-81
2021/10/08 00:45:37;;;;;;;3.83;2.60;;;10.60;99.10;;;;;;5095784;28;20099;-80
2021/10/08 00:48:07;;;;;;;4.28;2.63;;;10.60;99.00;;;;;;5094494;28;20066;-80
2021/10/08 00:50:45;;;;;;;4.53;2.80;;;10.50;99.10;;;;;;5096285;28;20134;-80
2021/10/08 00:53:12;;;;;;;4.85;2.78;;;10.50;99.20;;;;;;5094408;28;20464;-80
2021/10/08 00:55:49;;;;;;;5.65;3.13;;;10.50;99.20;;;;;;5094601;28;20384;-81
2021/10/08 00:58:17;;;;;;;4.82;2.90;;;10.40;99.10;;;;;;5094377;28;20043;-79
2021/10/08 01:00:45;;;;;;;9.05;3.50;;;10.40;99.10;;;;;;5094839;28;20020;-81
2021/10/08 01:03:11;;;;;;;4.38;2.85;;;10.40;99.10;;;;;;5095075;28;20103;-81
2021/10/08 01:05:38;;;;;;;4.28;3.13;;;10.40;99.20;;;;;;5077218;28;20036;-81
2021/10/08 01:08:04;;;;;;;6.07;2.35;;;10.40;99.10;;;;;;5073964;28;20077;-81
2021/10/08 01:10:31;;;;;;;4.43;2.58;;;10.30;98.90;;;;;;5074499;28;20028;-80
2021/10/08 01:12:56;;;;;;;5.25;2.72;;;10.30;98.80;;;;;;5074023;28;20021;-81
2021/10/08 01:15:22;;;;;;;5.93;2.70;;;10.30;98.80;;;;;;5089599;28;20032;-81
2021/10/08 01:17:52;;;;;;;4.90;2.92;;;10.30;98.90;;;;;;5094770;28;20384;-80
2021/10/08 01:20:18;;;;;;;3.90;2.40;;;10.30;98.70;;;;;;5094050;28;20065;-80
2021/10/08 01:22:43;;;;;;;5.88;2.70;;;10.30;98.60;;;;;;5094360;28;20035;-80
2021/10/08 01:25:09;;;;;;;4.85;2.60;;;10.20;98.50;;;;;;5093829;28;20035;-79
2021/10/08 01:27:36;;;;;;;4.95;2.33;;;10.20;98.50;;;;;;5093126;28;20599;-81
2021/10/08 01:30:02;;;;;;;4.07;2.45;;;10.10;98.70;;;;;;5094978;28;20032;-81
2021/10/08 01:32:30;;;;;;;4.97;2.55;;;10.10;98.90;;;;;;5094543;28;20024;-80
2021/10/08 01:34:56;;;;;;;3.22;2.40;;;10.10;99.10;;;;;;5093590;28;20032;-81
2021/10/08 01:37:22;;;;;;;4.05;2.55;;;10.10;98.90;;;;;;5093668;28;20020;-80
2021/10/08 01:39:48;;;;;;;4.63;2.92;;;10.00;99.10;;;;;;5094678;28;20421;-80
2021/10/08 01:42:14;;;;;;;6.18;2.83;;;10.00;99.20;;;;;;5093242;28;20629;-80
2021/10/08 01:44:40;;;;;;;4.78;3.00;;;10.00;99.40;;;;;;5093831;28;20028;-81
2021/10/08 01:47:06;;;;;;;5.05;2.65;;;10.00;99.30;;;;;;5094433;28;20036;-81
2021/10/08 01:49:32;;;;;;;4.55;2.83;;;10.00;99.20;;;;;;5093584;28;20050;-81
2021/10/08 01:51:59;;;;;;;5.15;3.00;;;10.00;99.30;;;;;;5093944;28;20063;-81
2021/10/08 01:54:25;;;;;;;4.88;3.17;;;10.00;99.50;;;;;;5093613;28;20035;-81
2021/10/08 01:56:51;;;;;;;5.88;3.30;;;9.90;99.90;;;;;;5094877;28;20040;-81
2021/10/08 01:59:16;;;;;;;5.18;3.30;;;10.00;99.90;;;;;;5094283;28;20058;-80
2021/10/08 02:01:44;;;;;;;5.03;3.20;;;10.00;99.80;;;;;;5094561;28;20060;-81
2021/10/08 02:04:10;;;;;;;4.75;3.45;;;10.00;99.80;;;;;;5093286;28;20123;-81
2021/10/08 02:06:35;;;;;;;5.82;3.65;;;10.00;99.90;;;;;;5094579;28;20125;-80
2021/10/08 02:09:02;;;;;;;8.48;3.80;;;9.90;99.90;;;;;;5093199;28;20020;-80
2021/10/08 02:11:28;;;;;;;4.85;3.55;;;10.00;99.90;;;;;;5093447;28;20036;-80
2021/10/08 02:13:54;;;;;;;6.07;3.20;;;9.90;99.90;;;;;;5094088;28;20400;-82
2021/10/08 02:16:20;;;;;;;4.47;3.17;;;9.90;99.90;;;;;;5092887;28;20047;-80
2021/10/08 02:18:50;;;;;;;6.72;3.47;;;9.90;99.90;;;;;;5093359;28;20027;-81
2021/10/08 02:21:17;;;;;;;6.70;3.42;;;10.00;99.90;;;;;;5092787;28;20077;-81
2021/10/08 02:23:43;;;;;;;5.55;3.60;;;10.00;99.90;;;;;;5094279;28;20059;-80
2021/10/08 02:26:09;;;;;;;7.68;3.70;;;10.00;99.90;;;;;;5092623;28;20028;-81
2021/10/08 02:28:34;;;;;;;4.95;3.58;;;10.00;99.80;;;;;;5092611;28;20024;-80
2021/10/08 02:31:00;;;;;;;6.45;3.47;;;10.00;99.80;;;;;;5092816;28;20492;-81
2021/10/08 02:33:26;;;;;;;6.88;3.63;;;10.00;99.90;;;;;;5093059;28;20587;-79
2021/10/08 02:35:51;;;;;;;5.82;3.67;;;9.90;99.80;;;;;;5093197;28;20119;-80
2021/10/08 02:38:18;;;;;;;6.95;4.10;;;9.90;99.90;;;;;;5092827;28;20023;-80
2021/10/08 02:40:44;;;;;;;5.63;4.15;;;10.00;99.90;;;;;;5094242;28;20032;-80
2021/10/08 02:43:10;;;;;;;7.03;3.58;;;9.90;99.90;;;;;;5092760;28;20474;-81
2021/10/08 02:45:36;;;;;;;5.68;3.42;;;10.00;99.90;;;;;;5092945;28;20474;-80
2021/10/08 02:48:02;;;;;;;9.07;3.88;;;10.00;99.90;;;;;;5092741;28;20059;-81
2021/10/08 02:50:29;;;;;;;7.47;4.47;;;10.00;99.90;;;;;;5093150;28;20036;-80
2021/10/08 02:52:55;;;;;;;8.07;4.18;;;9.90;99.90;;;;;;5093304;28;20047;-82
2021/10/08 02:55:21;;;;;;;10.20;4.30;;;9.90;99.90;;;;;;5092762;28;20465;-80
2021/10/08 02:57:46;;;;;;;6.90;3.78;;;9.90;99.90;;;;;;5092550;28;20054;-79
2021/10/08 03:00:12;;;;;;;7.68;3.35;;;9.90;99.90;;;;;;5092329;28;20118;-80
2021/10/08 03:02:39;;;;;;;6.82;3.70;;;9.80;99.70;;;;;;5093448;28;20122;-81
2021/10/08 03:05:05;;;;;;;5.95;3.42;;;9.80;99.80;;;;;;5092239;28;20036;-81
2021/10/08 03:07:31;;;;;;;7.30;4.03;;;9.70;99.70;;;;;;5093037;28;20138;-80
2021/10/08 03:09:57;;;;;;;6.22;3.50;;;9.80;99.70;;;;;;5092750;28;20495;-83
2021/10/08 03:12:23;;;;;;;5.03;3.50;;;9.80;99.70;;;;;;5092409;28;20032;-80
2021/10/08 03:14:48;;;;;;;5.95;3.70;;;9.70;99.60;;;;;;5092818;28;20392;-81
2021/10/08 03:17:14;;;;;;;7.05;3.72;;;9.80;99.70;;;;;;5092211;28;20024;-81
2021/10/08 03:19:40;;;;;;;6.47;4.00;;;9.70;99.80;;;;;;5092557;28;20024;-81
2021/10/08 03:22:06;;;;;;;7.03;3.92;;;9.70;99.70;;;;;;5093064;28;20024;-81
2021/10/08 03:24:32;;;;;;;6.50;3.70;;;9.70;99.80;;;;;;5093027;28;20086;-81
2021/10/08 03:26:58;;;;;;;5.32;3.60;;;9.70;99.50;;;;;;5092566;28;20032;-83
2021/10/08 03:29:23;;;;;;;5.82;3.30;;;9.70;99.50;;;;;;5092648;28;20024;-81
2021/10/08 03:31:49;;;;;;;6.30;3.75;;;9.70;99.60;;;;;;5092543;28;20111;-81
2021/10/08 03:34:15;;;;;;;8.38;3.92;;;9.60;99.60;;;;;;5093020;28;20036;-80
2021/10/08 03:39:11;;;;;;;6.38;3.80;;;9.60;99.90;;;;;;5095716;28;20031;-81
2021/10/08 03:41:39;;;;;;;6.60;3.80;;;9.60;99.80;;;;;;5097017;28;20024;-81
2021/10/08 03:44:05;;;;;;;7.05;3.40;;;9.60;99.70;;;;;;5095776;28;20031;-81
2021/10/08 03:46:38;;;;;;;8.55;3.95;;;9.60;99.70;;;;;;5097451;28;20025;-81
2021/10/08 03:51:35;;;;;;;5.28;3.25;;;9.50;99.50;;;;;;5096671;28;20488;-81
2021/10/08 03:54:01;;;;;;;7.05;3.60;;;9.50;99.50;;;;;;5095570;28;20032;-83
2021/10/08 03:56:28;;;;;;;7.68;4.00;;;9.40;99.60;;;;;;5095663;28;20056;-80
2021/10/08 03:58:55;;;;;;;7.25;3.42;;;9.40;99.80;;;;;;5095490;28;20055;-80
2021/10/08 04:01:21;;;;;;;6.28;3.53;;;9.40;99.80;;;;;;5094762;28;20032;-80
2021/10/08 04:03:47;;;;;;;9.23;3.53;;;9.40;99.60;;;;;;5095355;28;20035;-80
2021/10/08 04:06:12;;;;;;;5.82;3.30;;;9.30;99.60;;;;;;5095649;28;20032;-81
2021/10/08 04:08:38;;;;;;;6.00;3.63;;;9.30;99.50;;;;;;5095893;28;20020;-81
2021/10/08 04:11:04;;;;;;;7.65;4.03;;;9.30;99.80;;;;;;5096178;28;20027;-84
2021/10/08 04:13:30;;;;;;;7.38;3.63;;;9.30;99.90;;;;;;5096501;28;20039;-80
2021/10/08 04:15:55;;;;;;;5.80;3.22;;;9.30;99.80;;;;;;5095580;28;20024;-80
2021/10/08 04:18:21;;;;;;;7.30;3.17;;;9.30;99.70;;;;;;5094578;28;20028;-79
2021/10/08 04:20:47;;;;;;;6.03;3.25;;;9.20;99.70;;;;;;5095814;28;20111;-80
2021/10/08 04:23:13;;;;;;;5.45;3.53;;;9.20;99.80;;;;;;5083736;28;20025;-81
2021/10/08 04:25:39;;;;;;;5.60;3.50;;;9.20;99.80;;;;;;5076428;28;20100;-80
2021/10/08 04:28:05;;;;;;;6.25;3.67;;;9.20;99.70;;;;;;5085831;28;20119;-83
2021/10/08 04:30:31;;;;;;;5.28;3.42;;;9.20;99.60;;;;;;5109747;28;20073;-80
2021/10/08 04:32:56;;;;;;;5.47;3.67;;;9.10;99.60;;;;;;5115867;28;20049;-81
2021/10/08 04:35:22;;;;;;;5.57;3.03;;;9.10;99.80;;;;;;5115206;28;20052;-80
2021/10/08 04:37:47;;;;;;;6.15;3.17;;;9.10;99.80;;;;;;5111145;28;20028;-81
2021/10/08 04:40:13;;;;;;;4.53;3.13;;;9.10;99.70;;;;;;5095347;28;20024;-79
2021/10/08 04:42:39;;;;;;;4.10;3.03;;;9.10;99.60;;;;;;5094303;28;20036;-81
2021/10/08 04:45:05;;;;;;;8.38;2.97;;;9.10;99.90;;;;;;5094381;28;20058;-86
2021/10/08 04:47:31;;;;;;;5.28;2.88;;;9.10;99.90;;;;;;5094388;28;20024;-81
2021/10/08 04:49:57;;;;;;;5.70;3.42;;;9.00;99.90;;;;;;5093585;28;20080;-80
2021/10/08 04:52:22;;;;;;;5.50;3.15;;;9.00;99.90;;;;;;5093846;28;20024;-81
2021/10/08 04:54:48;;;;;;;5.47;3.45;;;9.00;99.90;;;;;;5094513;28;20544;-81
2021/10/08 04:57:13;;;;;;;6.32;3.05;;;9.00;99.90;;;;;;5093630;28;20389;-81
2021/10/08 04:59:39;;;;;;;5.85;3.55;;;9.00;99.90;;;;;;5094489;28;20483;-80
2021/10/08 05:02:05;;;;;;;7.13;3.75;;;9.00;99.90;;;;;;5094009;28;20035;-84
2021/10/08 05:04:30;;;;;;;5.47;3.60;;;9.10;99.90;;;;;;5094643;28;20394;-81
2021/10/08 05:06:56;;;;;;;5.43;3.65;;;9.10;99.90;;;;;;5095334;28;20035;-81
2021/10/08 05:09:22;;;;;;;7.18;3.72;;;9.10;99.90;;;;;;5094120;28;20032;-81
2021/10/08 05:11:47;;;;;;;6.07;3.45;;;9.10;99.90;;;;;;5094123;28;20047;-79
2021/10/08 05:14:13;;;;;;;6.13;3.50;;;9.10;99.90;;;;;;5093859;28;20028;-79
2021/10/08 05:16:39;;;;;;;4.70;3.55;;;9.10;99.90;;;;;;5094175;28;20024;-81
2021/10/08 05:19:06;;;;;;;5.53;3.58;;;9.10;99.90;;;;;;5094072;28;20031;-86
2021/10/08 05:21:32;;;;;;;6.38;4.07;;;9.10;99.90;;;;;;5094186;28;20081;-81
2021/10/08 05:23:57;;;;;;;10.10;4.88;;;9.10;99.90;;;;;;5094230;28;20031;-79
2021/10/08 05:26:23;;;;;;;6.93;4.10;;;9.10;99.90;;;;;;5093543;28;20024;-81
2021/10/08 05:28:49;;;;;;;7.45;4.30;;;9.10;99.90;;;;;;5128302;27;20504;-81
2021/10/08 05:31:15;;;;;;;6.90;4.28;;;9.10;99.90;;;;;;5093136;28;20042;-81
2021/10/08 05:33:40;;;;;;;8.02;4.30;;;9.10;99.90;;;;;;5095112;28;20032;-81
2021/10/08 05:36:06;;;;;;;9.27;4.50;;;9.10;99.90;;;;;;5093674;28;20488;-85
2021/10/08 05:38:32;;;;;;;8.50;4.72;;;9.20;99.90;;;;;;5094676;28;20028;-81
2021/10/08 05:40:58;;;;;;;6.72;4.20;;;9.20;99.90;;;;;;5094096;28;20027;-80
2021/10/08 05:43:23;;;;;;;10.27;4.55;;;9.20;99.90;;;;;;5093108;28;20055;-81
2021/10/08 05:45:49;;;;;;;10.50;5.15;;;9.20;99.90;;;;;;5093815;28;20089;-81
2021/10/08 05:48:15;;;;;;;5.03;3.70;;;9.20;99.90;;;;;;5093561;28;20392;-81
2021/10/08 05:50:41;;;;;;;10.13;4.35;;;9.20;99.90;;;;;;5093573;28;20027;-81
2021/10/08 05:53:11;;;;;;;7.15;3.97;;;9.20;99.90;;;;;;5093089;28;20030;-85
2021/10/08 05:55:37;;;;;;;7.65;4.05;;;9.20;99.90;;;;;;5094446;28;20028;-80
2021/10/08 05:58:03;;;;;;;8.93;4.53;;;9.20;99.90;;;;;;5093198;28;20040;-81
2021/10/08 06:00:29;;;;;;;8.35;4.10;;;9.20;99.90;;;;;;5093528;28;20030;-80
2021/10/08 06:02:55;;;;;;;8.63;3.97;;;9.20;99.90;;;;;;5093361;28;20039;-80
2021/10/08 06:05:21;;;;;;;8.18;4.78;;;9.20;99.90;;;;;;5092308;28;20170;-80
2021/10/08 06:07:48;;;;;;;14.18;5.70;;;9.20;99.90;;;;;;5093119;28;20094;-80
2021/10/08 06:10:13;;;;;;;9.82;5.00;;;9.10;99.90;;;;;;5092444;28;20039;-80
2021/10/08 06:12:39;;;;;;;8.55;4.57;;;9.20;99.90;;;;;;5094201;28;20051;-81
2021/10/08 06:15:05;;;;;;;9.95;4.60;;;9.20;99.90;;;;;;5092996;28;20032;-80
2021/10/08 06:17:31;;;;;;;9.98;5.32;;;9.20;99.90;;;;;;5092286;28;20521;-80
2021/10/08 06:19:56;;;;;;;6.88;4.22;;;9.10;99.90;;;;;;5092764;28;20035;-80
2021/10/08 06:22:22;;;;;;;10.57;4.63;;;9.20;99.90;;;;;;5092642;28;20038;-80
2021/10/08 06:24:48;;;;;;;8.70;4.82;;;9.20;99.90;;;;;;5094092;28;20027;-81
2021/10/08 06:27:13;;;;;;;6.75;4.25;;;9.20;99.90;;;;;;5145285;27;20531;-81
2021/10/08 06:29:39;;;;;;;7.65;4.28;;;9.20;99.90;;;;;;5114421;28;20039;-81
2021/10/08 06:32:07;;;;;;;8.55;4.93;;;9.20;99.90;;;;;;5113320;28;20032;-80
2021/10/08 06:34:33;;;;;;;8.20;4.60;;;9.20;99.90;;;;;;5109272;28;20028;-81
2021/10/08 06:36:59;;;;;;;11.25;5.05;;;9.30;99.90;;;;;;5093976;28;20032;-81
2021/10/08 06:39:25;;;;;;;7.90;4.40;;;9.20;99.90;;;;;;5094674;28;20024;-80
2021/10/08 06:41:51;;;;;;;7.95;4.32;;;9.30;99.90;;;;;;5139247;27;20459;-80
2021/10/08 06:44:18;;;;;;;8.23;4.78;;;9.30;99.90;;;;;;5138056;27;20028;-81
2021/10/08 06:46:44;;;;;;;9.05;5.20;;;9.20;99.90;;;;;;5094675;28;20030;-80
2021/10/08 06:49:10;;;;;;;7.85;4.78;;;9.30;99.90;;;;;;5094671;28;20028;-86
2021/10/08 06:51:37;;;;;;;9.45;5.10;;;9.30;99.90;;;;;;5101398;28;20032;-80
2021/10/08 06:54:03;;;;;;;9.45;5.00;;;9.30;99.90;;;;;;5093820;28;20028;-81
2021/10/08 06:56:30;;;;;;;8.77;5.10;;;9.30;99.90;;;;;;5092558;28;20070;-80
2021/10/08 06:58:56;;;;;;;9.00;4.82;;;9.30;99.90;;;;;;5093809;28;20058;-80
2021/10/08 07:01:22;;;;;;;10.68;5.45;;;9.30;99.90;;;;;;5091919;28;20020;-81
2021/10/08 07:03:48;;;;;;;8.82;5.18;;;9.40;99.90;;;;;;5092348;28;20062;-81
2021/10/08 07:06:14;;;;;;;12.60;5.82;;;9.40;99.90;;;;;;5090658;28;20311;-81
2021/10/08 07:08:40;;;;;;;9.30;4.22;;;9.40;99.90;;;;;;5097500;28;20465;-81
2021/10/08 07:11:05;;;;;;;10.38;4.43;;;9.40;99.90;;;;;;5093186;28;20027;-81
2021/10/08 07:13:31;;;;;;;7.40;4.63;;;9.50;99.90;;;;;;5092757;28;20066;-81
2021/10/08 07:15:58;;;;;;;9.85;5.05;;;9.50;99.90;;;;;;5109169;28;20032;-81
2021/10/08 07:18:32;;;;;;;6.97;4.68;;;9.60;99.90;;;;;;5103144;28;20076;-81
2021/10/08 07:20:58;;;;;;;8.93;5.13;;;9.60;99.90;;;;;;5097130;28;20109;-82
2021/10/08 07:23:24;;;;;;;8.50;5.10;;;9.70;99.90;;;;;;5095981;28;20028;-82
2021/10/08 07:25:51;;;;;;;10.18;4.97;;;9.70;99.90;;;;;;5095929;28;20043;-82
2021/10/08 07:28:17;;;;;;;9.48;5.00;;;9.70;99.90;;;;;;5095354;28;20023;-82
2021/10/08 07:30:43;;;;;;;7.40;4.55;;;9.70;99.90;;;;;;5095828;28;20016;-82
2021/10/08 07:33:09;;;;;;;9.57;4.47;;;9.80;99.90;;;;;;5095465;28;20526;-81
2021/10/08 07:35:35;;;;;;;7.30;4.68;;;9.80;99.90;;;;;;5096754;28;20032;-82
2021/10/08 07:38:01;;;;;;;9.27;4.45;;;9.80;99.90;;;;;;5098779;28;20052;-82
2021/10/08 07:40:26;;;;;;;7.93;4.32;;;9.90;99.90;;;;;;5087031;28;20024;-81
2021/10/08 07:42:52;;;;;;;9.23;5.07;;;9.90;99.90;;;;;;5094980;28;20061;-82
2021/10/08 07:45:18;;;;;;;5.65;4.30;;;9.90;99.90;;;;;;5092492;28;20032;-83
2021/10/08 07:47:43;;;;;;;6.60;4.10;;;10.00;99.90;;;;;;5094022;28;20016;-82
2021/10/08 07:50:10;;;;;;;6.30;3.90;;;10.00;99.90;;;;;;5082566;28;20017;-82
2021/10/08 07:52:36;;;;;;;5.95;4.10;;;10.10;99.90;;;;;;5094557;28;20020;-81
2021/10/08 07:55:05;;;;;;;5.65;3.58;;;10.10;99.90;;;;;;5108489;28;20568;-82
2021/10/08 07:57:30;;;;;;;8.32;4.22;;;10.20;99.90;;;;;;5137341;27;20135;-81
2021/10/08 07:59:56;;;;;;;5.82;3.63;;;10.30;99.90;;;;;;5094869;28;20433;-82
2021/10/08 08:02:23;;;;;;;7.63;4.43;;;10.30;99.90;;;;;;5080900;28;20119;-81
2021/10/08 08:04:49;;;;;;;7.05;3.90;;;10.30;99.90;;;;;;5074641;28;20032;-81
2021/10/08 08:07:14;;;;;;;9.63;4.40;;;10.40;99.90;;;;;;5085199;28;20032;-82
2021/10/08 08:09:40;;;;;;;5.72;4.00;;;10.40;99.90;;;;;;5086396;28;20028;-81
2021/10/08 08:12:08;;;;;;;7.15;4.45;;;10.50;99.90;;;;;;5093441;28;20043;-81
2021/10/08 08:14:33;;;;;;;7.75;4.05;;;10.60;99.90;;;;;;5090953;28;20227;-81
2021/10/08 08:16:59;;;;;;;3.92;3.25;;;10.70;99.90;;;;;;5095798;28;20050;-82
2021/10/08 08:19:25;;;;;;;7.05;3.92;;;10.70;99.90;;;;;;5092447;28;20476;-81
2021/10/08 08:21:50;;;;;;;9.88;4.03;;;10.70;99.90;;;;;;5075656;28;20025;-82
2021/10/08 08:24:16;;;;;;;6.15;3.33;;;10.80;99.90;;;;;;5083012;28;20043;-85
2021/10/08 08:26:42;;;;;;;5.00;3.30;;;10.90;99.90;;;;;;5094672;28;20480;-82
2021/10/08 08:29:07;;;;;;;7.57;3.65;;;11.00;99.90;;;;;;5094679;28;20024;-82
2021/10/08 08:31:33;;;;;;;6.72;3.45;;;11.00;99.90;;;;;;5094504;28;20032;-82
2021/10/08 08:33:59;;;;;;;5.45;3.13;;;11.10;99.90;;;;;;5075686;28;20055;-81
2021/10/08 08:36:25;;;;;;;5.65;3.58;;;11.20;99.90;;;;;;5087810;28;20492;-82
2021/10/08 08:38:50;;;;;;;7.60;3.20;;;11.20;99.90;;;;;;5090786;28;20488;-80
2021/10/08 08:41:16;;;;;;;6.25;3.25;;;11.30;99.90;;;;;;5093387;28;20055;-82
2021/10/08 08:43:42;;;;;;;6.57;3.22;;;11.40;99.90;;;;;;5128538;27;20104;-81
2021/10/08 08:46:07;;;;;;;6.88;3.58;;;11.50;99.90;;;;;;5095147;28;20036;-81
2021/10/08 08:48:34;;;;;;;5.18;3.35;;;11.50;99.90;;;;;;5086711;28;20051;-82
2021/10/08 08:50:59;;;;;;;6.90;3.22;;;11.60;99.80;;;;;;5075055;28;20503;-82
2021/10/08 08:53:25;;;;;;;7.93;3.25;;;11.70;99.30;;;;;;5088728;28;20023;-82
2021/10/08 08:55:51;;;;;;;5.25;3.30;;;11.80;99.00;;;;;;5094143;28;20484;-82
2021/10/08 08:58:21;;;;;;;4.30;3.17;;;11.80;98.80;;;;;;5086768;28;20035;-81
2021/10/08 09:01:01;;;;;;;7.70;2.85;;;11.80;98.90;;;;;;5074034;28;20413;-82
2021/10/08 09:03:27;;;;;;;4.60;2.75;;;12.00;99.20;;;;;;5080206;28;20032;-83
2021/10/08 09:05:54;;;;;;;8.52;3.10;;;12.00;99.00;;;;;;5102577;28;20065;-82
2021/10/08 09:08:29;;;;;;;5.43;3.28;;;12.00;98.50;;;;;;5095081;28;20039;-82
2021/10/08 09:10:59;;;;;;;6.38;2.75;;;12.10;99.00;;;;;;5090453;28;20039;-80
2021/10/08 09:13:27;;;;;;;4.55;2.95;;;12.20;98.70;;;;;;5075813;28;20496;-82
2021/10/08 09:15:58;;;;;;;7.28;2.92;;;12.20;98.10;;;;;;5080882;28;20013;-80
2021/10/08 09:18:26;;;;;;;5.25;2.95;;;12.30;98.40;;;;;;5088256;28;20024;-81
2021/10/08 09:21:13;;;;;;;6.78;3.20;;;12.40;98.90;;;;;;5073602;28;20453;-80
2021/10/08 09:23:41;;;;;;;7.50;2.97;;;12.50;98.60;;;;;;5077716;28;20048;-80
2021/10/08 09:26:15;;;;;;;4.20;2.92;;;12.50;97.50;;;;;;5075097;28;20100;-82
2021/10/08 09:28:56;;;;;;;5.85;3.10;;;12.70;97.90;;;;;;5127428;27;20024;-82
2021/10/08 09:31:46;;;;;;;7.70;2.92;;;12.80;98.10;;;;;;5092355;28;20028;-80
2021/10/08 09:34:21;;;;;;;5.22;2.42;;;12.90;97.20;;;;;;5098329;28;20048;-80
2021/10/08 09:36:55;;;;;;;6.03;3.10;;;13.00;97.60;;;;;;5072441;28;20083;-82
2021/10/08 09:39:31;;;;;;;7.32;3.33;;;13.00;97.40;;;;;;5111338;27;20024;-82
2021/10/08 09:41:59;;;;;;;6.70;3.20;;;13.00;97.20;;;;;;5098626;28;20473;-79
2021/10/08 09:44:31;;;;;;;4.90;3.38;;;13.00;97.30;;;;;;5072754;28;20116;-80
2021/10/08 09:47:11;;;;;;;8.23;3.17;;;13.10;97.30;;;;;;5088391;28;20082;-81
2021/10/08 09:49:38;;;;;;;5.15;2.88;;;13.10;97.40;;;;;;5091285;28;20522;-81
2021/10/08 09:52:27;;;;;;;7.22;2.95;;;13.20;97.50;;;;;;5089647;28;20028;-80
2021/10/08 09:54:56;;;;;;;3.92;2.58;;;13.20;97.20;;;;;;5091146;28;20064;-79
2021/10/08 09:57:22;;;;;;;6.22;2.90;;;13.30;97.00;;;;;;5091114;28;20635;-80
2021/10/08 09:59:50;;;;;;;5.10;2.70;;;13.20;96.90;;;;;;5080174;28;20406;-79
2021/10/08 10:02:17;;;;;;;3.92;2.67;;;13.20;97.00;;;;;;5087710;28;20024;-80
2021/10/08 10:04:54;;;;;;;6.05;2.50;;;13.30;96.90;;;;;;5091544;28;20457;-80
2021/10/08 10:07:22;;;;;;;5.00;2.40;;;13.30;97.10;;;;;;5091786;28;20036;-80
2021/10/08 10:09:49;;;;;;;6.53;2.85;;;13.40;97.00;;;;;;5091977;28;20439;-82
2021/10/08 10:12:18;;;;;;;5.55;2.65;;;13.40;96.80;;;;;;5112094;28;20182;-80
2021/10/08 10:14:47;;;;;;;5.78;3.17;;;13.50;96.70;;;;;;5081446;28;20062;-79
2021/10/08 10:17:14;;;;;;;6.60;2.83;;;13.60;96.70;;;;;;5074476;28;20035;-80
2021/10/08 10:19:43;;;;;;;6.13;2.95;;;13.70;96.40;;;;;;5072169;28;20091;-80
2021/10/08 10:22:17;;;;;;;4.97;2.80;;;13.80;96.40;;;;;;5078812;28;20024;-80
2021/10/08 10:24:47;;;;;;;4.68;2.28;;;13.90;96.30;;;;;;5091273;28;20038;-79
2021/10/08 10:27:17;;;;;;;8.57;2.60;;;14.10;96.30;;;;;;5075086;28;20473;-82
2021/10/08 10:29:45;;;;;;;4.45;2.60;;;14.20;96.20;;;;;;5081147;28;20035;-83
2021/10/08 10:32:13;;;;;;;4.03;2.10;;;14.20;96.00;;;;;;5091455;28;20028;-80
2021/10/08 10:34:39;;;;;;;6.30;2.40;;;14.30;95.70;;;;;;5124656;27;20051;-81
2021/10/08 10:37:06;;;;;;;4.97;2.10;;;14.30;95.70;;;;;;5090526;28;20123;-80
2021/10/08 10:39:32;;;;;;;5.63;2.03;;;14.40;95.70;;;;;;5098600;28;20473;-81
2021/10/08 10:42:03;;;;;;;4.95;2.15;;;14.50;95.70;;;;;;5128237;27;20038;-81
2021/10/08 10:44:34;;;;;;;3.38;1.85;;;14.60;95.60;;;;;;5089887;28;20031;-80
2021/10/08 10:47:16;;;;;;;4.28;2.40;;;14.70;95.70;;;;;;5092464;28;20028;-80
2021/10/08 10:52:13;;;;;;;6.63;2.38;;;14.90;95.20;;;;;;5096366;28;20028;-80
2021/10/08 10:54:43;;;;;;;8.40;2.70;;;15.00;95.00;;;;;;5095333;28;20090;-80
2021/10/08 10:57:18;;;;;;;8.23;3.00;;;15.00;95.20;;;;;;5081652;28;20083;-80
2021/10/08 10:59:44;;;;;;;6.53;3.00;;;15.10;94.90;;;;;;5092360;28;20423;-80
2021/10/08 11:02:16;;;;;;;4.70;3.03;;;15.10;94.80;;;;;;5096740;28;20035;-80
2021/10/08 11:04:47;;;;;;;4.90;3.22;;;15.20;94.70;;;;;;5091671;28;20134;-81
2021/10/08 11:07:18;;;;;;;6.25;3.45;;;15.20;94.50;;;;;;5079370;28;20470;-81
2021/10/08 11:10:03;;;;;;;5.47;3.03;;;15.10;93.70;;;;;;5079780;28;20489;-81
2021/10/08 11:12:30;;;;;;;6.72;3.22;;;15.10;93.80;;;;;;5104547;28;20482;-82
2021/10/08 11:15:17;;;;;;;6.82;3.45;;;15.10;93.90;;;;;;5076529;28;20128;-80
2021/10/08 11:18:04;;;;;;;7.53;3.78;;;15.20;94.10;;;;;;5102547;28;20024;-81
2021/10/08 11:20:30;;;;;;;8.10;3.75;;;15.30;93.40;;;;;;5075254;28;20055;-82
2021/10/08 11:23:04;;;;;;;6.50;4.07;;;15.40;93.50;;;;;;5093915;28;20031;-82
2021/10/08 11:25:35;;;;;;;9.15;3.47;;;15.40;93.60;;;;;;5077544;28;20039;-80
2021/10/08 11:28:01;;;;;;;7.28;3.53;;;15.50;93.90;;;;;;5091625;28;20119;-79
2021/10/08 11:30:29;;;;;;;5.18;3.65;;;15.60;93.50;;;;;;5130057;27;20060;-81
2021/10/08 11:32:57;;;;;;;5.75;3.45;;;15.60;93.60;;;;;;5097028;28;20058;-81
2021/10/08 11:35:36;;;;;;;5.45;3.42;;;15.70;93.20;;;;;;5096959;28;20501;-84
2021/10/08 11:38:04;;;;;;;5.32;3.22;;;15.70;93.40;;;;;;5125099;27;20501;-80
2021/10/08 11:40:37;;;;;;;6.25;3.50;;;15.80;93.20;;;;;;5074856;28;20063;-80
2021/10/08 11:43:09;;;;;;;5.28;3.25;;;15.80;93.50;;;;;;5082085;28;20024;-81
2021/10/08 11:46:01;;;;;;;20.75;4.03;;;15.80;93.70;;;;;;5107532;28;20081;-80
2021/10/08 11:48:40;;;;;;;7.43;4.05;;;15.90;93.10;;;;;;5095302;28;20042;-80
2021/10/08 11:51:06;;;;;;;7.50;3.80;;;15.90;93.40;;;;;;5091627;28;20039;-80
2021/10/08 11:53:47;;;;;;;8.05;4.53;;;16.00;92.70;;;;;;5086648;28;20031;-83
2021/10/08 11:56:27;;;;;;;5.97;3.58;;;15.90;92.20;;;;;;5090994;28;20098;-81
2021/10/08 11:59:15;;;;;;;6.30;4.13;;;16.00;92.60;;;;;;5094264;28;20031;-81
2021/10/08 12:01:41;;;;;;;5.90;3.97;;;16.00;92.40;;;;;;5106512;28;20093;-81
2021/10/08 12:04:18;;;;;;;8.95;4.95;;;16.00;92.90;;;;;;5084404;28;20031;-80
2021/10/08 12:06:44;;;;;;;12.70;4.57;;;16.00;92.30;;;;;;5090351;28;20067;-81
2021/10/08 12:09:21;;;;;;;7.97;4.50;;;16.00;92.60;;;;;;5148268;27;20027;-80
2021/10/08 12:11:47;;;;;;;7.75;4.40;;;16.10;92.90;;;;;;5108184;28;20020;-80
2021/10/08 12:14:12;;;;;;;8.80;4.38;;;16.20;92.80;;;;;;5096503;28;20043;-81
2021/10/08 12:16:46;;;;;;;6.95;4.55;;;16.20;92.60;;;;;;5094478;28;20452;-80
2021/10/08 12:19:13;;;;;;;8.15;4.40;;;16.20;92.60;;;;;;5095578;28;20053;-81
2021/10/08 12:21:40;;;;;;;8.55;4.20;;;16.20;92.40;;;;;;5093840;28;20020;-79
2021/10/08 12:24:10;;;;;;;7.60;4.63;;;16.20;92.70;;;;;;5102752;28;20031;-81
2021/10/08 12:26:39;;;;;;;9.85;4.72;;;16.20;92.60;;;;;;5094134;28;20032;-80
2021/10/08 12:29:11;;;;;;;10.18;4.80;;;16.30;92.70;;;;;;5095561;28;20123;-82
2021/10/08 12:31:52;;;;;;;5.55;3.85;;;16.20;92.50;;;;;;5093099;28;20101;-80
2021/10/08 12:34:35;;;;;;;6.95;4.30;;;16.30;92.50;;;;;;5094640;28;20040;-80
2021/10/08 12:37:03;;;;;;;7.13;3.83;;;16.30;92.40;;;;;;5128611;27;20028;-81
2021/10/08 12:39:34;;;;;;;8.30;4.75;;;16.40;92.40;;;;;;5093245;28;20027;-82
2021/10/08 12:42:10;;;;;;;5.68;4.22;;;16.50;92.50;;;;;;5107715;28;20034;-80
2021/10/08 12:44:46;;;;;;;6.68;3.97;;;16.50;92.40;;;;;;5111183;28;20042;-80
2021/10/08 12:47:16;;;;;;;8.55;4.32;;;16.60;92.40;;;;;;5111891;27;20039;-80
2021/10/08 12:49:57;;;;;;;6.68;4.20;;;16.60;92.30;;;;;;5095093;28;20020;-78
2021/10/08 12:52:32;;;;;;;8.90;4.78;;;16.70;92.20;;;;;;5093150;28;20169;-81
2021/10/08 12:55:20;;;;;;;7.43;4.68;;;16.70;92.10;;;;;;5093502;28;20040;-80
2021/10/08 12:58:04;;;;;;;8.13;4.30;;;16.80;92.20;;;;;;5089973;28;20123;-80
2021/10/08 13:00:54;;;;;;;8.30;4.68;;;16.80;91.80;;;;;;5092626;28;20077;-80
2021/10/08 13:03:39;;;;;;;7.07;4.50;;;16.90;91.70;;;;;;5092968;28;20111;-80